sensor_id;sensor_type;location;lat;lon;timestamp;P1;durP1;ratioP1;P2;durP2;ratioP2
16543;SDS011;8384;47.996;7.786;2023-03-23T00:01:18;1.60;;;1.50;;
16543;SDS011;8384;47.996;7.786;2023-03-23T00:03:46;1.63;;;1.50;;
16543;SDS011;8384;47.996;7.786;2023-03-23T00:06:12;1.83;;;1.40;;
16543;SDS011;8384;47.996;7.786;2023-03-23T00:08:43;1.90;;;1.35;;
16543;SDS011;8384;47.996;7.786;2023-03-23T00:11:13;1.85;;;1.58;;
16543;SDS011;8384;47.996;7.786;2023-03-23T00:13:44;1.67;;;1.30;;
16543;SDS011;8384;47.996;7.786;2023-03-23T00:16:10;1.88;;;1.42;;
16543;SDS011;8384;47.996;7.786;2023-03-23T00:18:46;1.67;;;1.58;;
16543;SDS011;8384;47.996;7.786;2023-03-23T00:21:17;1.50;;;1.40;;
16543;SDS011;8384;47.996;7.786;2023-03-23T00:23:57;1.80;;;1.25;;
16543;SDS011;8384;47.996;7.786;2023-03-23T00:26:24;1.75;;;1.50;;
16543;SDS011;8384;47.996;7.786;2023-03-23T00:28:53;1.73;;;1.50;;
16543;SDS011;8384;47.996;7.786;2023-03-23T00:31:18;1.50;;;1.40;;
16543;SDS011;8384;47.996;7.786;2023-03-23T00:33:44;2.83;;;1.53;;
16543;SDS011;8384;47.996;7.786;2023-03-23T00:36:10;1.90;;;1.40;;
16543;SDS011;8384;47.996;7.786;2023-03-23T00:38:37;1.50;;;1.40;;
16543;SDS011;8384;47.996;7.786;2023-03-23T00:41:04;1.50;;;1.40;;
16543;SDS011;8384;47.996;7.786;2023-03-23T00:43:30;1.70;;;1.57;;
16543;SDS011;8384;47.996;7.786;2023-03-23T00:45:56;1.60;;;1.40;;
16543;SDS011;8384;47.996;7.786;2023-03-23T00:48:26;1.58;;;1.48;;
16543;SDS011;8384;47.996;7.786;2023-03-23T00:50:52;1.80;;;1.40;;
16543;SDS011;8384;47.996;7.786;2023-03-23T00:53:18;1.98;;;1.60;;
16543;SDS011;8384;47.996;7.786;2023-03-23T00:55:44;1.60;;;1.50;;
16543;SDS011;8384;47.996;7.786;2023-03-23T00:58:11;2.45;;;1.45;;
16543;SDS011;8384;47.996;7.786;2023-03-23T01:00:37;1.48;;;1.30;;
16543;SDS011;8384;47.996;7.786;2023-03-23T01:03:03;1.40;;;1.30;;
16543;SDS011;8384;47.996;7.786;2023-03-23T01:05:29;1.57;;;1.47;;
16543;SDS011;8384;47.996;7.786;2023-03-23T01:07:58;1.98;;;1.30;;
16543;SDS011;8384;47.996;7.786;2023-03-23T01:10:24;1.90;;;1.37;;
16543;SDS011;8384;47.996;7.786;2023-03-23T01:12:51;2.13;;;1.40;;
16543;SDS011;8384;47.996;7.786;2023-03-23T01:15:17;1.50;;;1.40;;
16543;SDS011;8384;47.996;7.786;2023-03-23T01:17:43;1.50;;;1.40;;
16543;SDS011;8384;47.996;7.786;2023-03-23T01:20:10;1.35;;;1.25;;
16543;SDS011;8384;47.996;7.786;2023-03-23T01:22:37;1.80;;;1.27;;
16543;SDS011;8384;47.996;7.786;2023-03-23T01:25:03;1.33;;;1.23;;
16543;SDS011;8384;47.996;7.786;2023-03-23T01:27:30;1.50;;;1.30;;
16543;SDS011;8384;47.996;7.786;2023-03-23T01:29:55;1.53;;;1.43;;
16543;SDS011;8384;47.996;7.786;2023-03-23T01:32:20;2.20;;;1.40;;
16543;SDS011;8384;47.996;7.786;2023-03-23T01:34:46;3.23;;;1.50;;
16543;SDS011;8384;47.996;7.786;2023-03-23T01:37:11;1.67;;;1.20;;
16543;SDS011;8384;47.996;7.786;2023-03-23T01:39:36;1.67;;;1.20;;
16543;SDS011;8384;47.996;7.786;2023-03-23T01:42:02;1.70;;;1.35;;
16543;SDS011;8384;47.996;7.786;2023-03-23T01:46:56;1.50;;;1.40;;
16543;SDS011;8384;47.996;7.786;2023-03-23T01:49:24;1.43;;;1.33;;
16543;SDS011;8384;47.996;7.786;2023-03-23T01:51:59;1.60;;;1.13;;
16543;SDS011;8384;47.996;7.786;2023-03-23T01:54:29;1.40;;;1.30;;
16543;SDS011;8384;47.996;7.786;2023-03-23T01:57:02;1.40;;;1.20;;
16543;SDS011;8384;47.996;7.786;2023-03-23T01:59:31;1.40;;;1.30;;
16543;SDS011;8384;47.996;7.786;2023-03-23T02:01:58;1.40;;;1.30;;
16543;SDS011;8384;47.996;7.786;2023-03-23T02:04:25;1.30;;;1.20;;
16543;SDS011;8384;47.996;7.786;2023-03-23T02:06:52;2.50;;;1.33;;
16543;SDS011;8384;47.996;7.786;2023-03-23T02:09:19;2.20;;;1.42;;
16543;SDS011;8384;47.996;7.786;2023-03-23T02:11:45;1.70;;;1.10;;
16543;SDS011;8384;47.996;7.786;2023-03-23T02:14:12;1.90;;;1.30;;
16543;SDS011;8384;47.996;7.786;2023-03-23T02:19:51;1.38;;;1.27;;
16543;SDS011;8384;47.996;7.786;2023-03-23T02:33:47;1.45;;;1.20;;
16543;SDS011;8384;47.996;7.786;2023-03-23T02:36:49;2.77;;;1.40;;
16543;SDS011;8384;47.996;7.786;2023-03-23T02:39:24;1.30;;;1.20;;
16543;SDS011;8384;47.996;7.786;2023-03-23T02:42:02;1.17;;;1.08;;
16543;SDS011;8384;47.996;7.786;2023-03-23T02:44:30;1.70;;;1.13;;
16543;SDS011;8384;47.996;7.786;2023-03-23T02:46:59;1.40;;;1.10;;
16543;SDS011;8384;47.996;7.786;2023-03-23T02:49:27;1.30;;;1.20;;
16543;SDS011;8384;47.996;7.786;2023-03-23T02:51:58;2.50;;;1.43;;
16543;SDS011;8384;47.996;7.786;2023-03-23T02:54:25;1.80;;;1.17;;
16543;SDS011;8384;47.996;7.786;2023-03-23T02:56:52;1.40;;;1.30;;
16543;SDS011;8384;47.996;7.786;2023-03-23T02:59:19;1.40;;;1.30;;
16543;SDS011;8384;47.996;7.786;2023-03-23T03:01:50;2.55;;;1.33;;
16543;SDS011;8384;47.996;7.786;2023-03-23T03:04:21;1.63;;;1.30;;
16543;SDS011;8384;47.996;7.786;2023-03-23T03:09:37;1.77;;;1.20;;
16543;SDS011;8384;47.996;7.786;2023-03-23T03:12:08;1.40;;;1.10;;
16543;SDS011;8384;47.996;7.786;2023-03-23T03:14:42;1.40;;;1.30;;
16543;SDS011;8384;47.996;7.786;2023-03-23T03:19:55;1.33;;;1.10;;
16543;SDS011;8384;47.996;7.786;2023-03-23T03:22:24;1.30;;;1.20;;
16543;SDS011;8384;47.996;7.786;2023-03-23T03:24:55;1.80;;;1.20;;
16543;SDS011;8384;47.996;7.786;2023-03-23T03:27:23;1.67;;;1.10;;
16543;SDS011;8384;47.996;7.786;2023-03-23T03:29:52;1.40;;;1.30;;
16543;SDS011;8384;47.996;7.786;2023-03-23T03:32:22;1.43;;;1.20;;
16543;SDS011;8384;47.996;7.786;2023-03-23T03:34:52;1.40;;;1.30;;
16543;SDS011;8384;47.996;7.786;2023-03-23T03:37:18;1.70;;;1.30;;
16543;SDS011;8384;47.996;7.786;2023-03-23T03:39:45;1.40;;;1.30;;
16543;SDS011;8384;47.996;7.786;2023-03-23T03:42:11;1.57;;;1.40;;
16543;SDS011;8384;47.996;7.786;2023-03-23T03:44:36;1.50;;;1.20;;
16543;SDS011;8384;47.996;7.786;2023-03-23T03:47:02;1.50;;;1.20;;
16543;SDS011;8384;47.996;7.786;2023-03-23T03:49:27;1.70;;;1.30;;
16543;SDS011;8384;47.996;7.786;2023-03-23T03:51:53;1.20;;;1.10;;
16543;SDS011;8384;47.996;7.786;2023-03-23T03:54:18;1.67;;;1.40;;
16543;SDS011;8384;47.996;7.786;2023-03-23T03:56:43;1.90;;;1.40;;
16543;SDS011;8384;47.996;7.786;2023-03-23T03:59:10;1.40;;;1.30;;
16543;SDS011;8384;47.996;7.786;2023-03-23T04:01:37;1.70;;;1.40;;
16543;SDS011;8384;47.996;7.786;2023-03-23T04:04:03;1.27;;;1.17;;
16543;SDS011;8384;47.996;7.786;2023-03-23T04:06:31;1.80;;;1.30;;
16543;SDS011;8384;47.996;7.786;2023-03-23T04:08:57;1.40;;;1.30;;
16543;SDS011;8384;47.996;7.786;2023-03-23T04:11:23;1.52;;;1.30;;
16543;SDS011;8384;47.996;7.786;2023-03-23T04:13:50;1.40;;;1.30;;
16543;SDS011;8384;47.996;7.786;2023-03-23T04:16:16;1.60;;;1.33;;
16543;SDS011;8384;47.996;7.786;2023-03-23T04:18:42;1.40;;;1.30;;
16543;SDS011;8384;47.996;7.786;2023-03-23T04:21:08;1.50;;;1.30;;
16543;SDS011;8384;47.996;7.786;2023-03-23T04:23:33;1.43;;;1.20;;
16543;SDS011;8384;47.996;7.786;2023-03-23T04:25:59;2.55;;;1.30;;
16543;SDS011;8384;47.996;7.786;2023-03-23T04:28:25;1.80;;;1.30;;
16543;SDS011;8384;47.996;7.786;2023-03-23T04:30:53;2.03;;;1.30;;
16543;SDS011;8384;47.996;7.786;2023-03-23T04:33:23;1.50;;;1.40;;
16543;SDS011;8384;47.996;7.786;2023-03-23T04:35:50;1.58;;;1.48;;
16543;SDS011;8384;47.996;7.786;2023-03-23T04:38:17;1.60;;;1.40;;
16543;SDS011;8384;47.996;7.786;2023-03-23T04:40:46;1.45;;;1.35;;
16543;SDS011;8384;47.996;7.786;2023-03-23T04:43:13;1.70;;;1.38;;
16543;SDS011;8384;47.996;7.786;2023-03-23T04:45:39;1.83;;;1.50;;
16543;SDS011;8384;47.996;7.786;2023-03-23T04:48:06;1.50;;;1.40;;
16543;SDS011;8384;47.996;7.786;2023-03-23T04:50:33;1.60;;;1.50;;
16543;SDS011;8384;47.996;7.786;2023-03-23T04:53:00;3.47;;;1.70;;
16543;SDS011;8384;47.996;7.786;2023-03-23T04:55:29;1.60;;;1.50;;
16543;SDS011;8384;47.996;7.786;2023-03-23T04:57:57;1.98;;;1.42;;
16543;SDS011;8384;47.996;7.786;2023-03-23T05:00:25;1.63;;;1.45;;
16543;SDS011;8384;47.996;7.786;2023-03-23T05:02:51;1.80;;;1.50;;
16543;SDS011;8384;47.996;7.786;2023-03-23T05:05:17;1.83;;;1.42;;
16543;SDS011;8384;47.996;7.786;2023-03-23T05:07:44;2.53;;;1.52;;
16543;SDS011;8384;47.996;7.786;2023-03-23T05:10:10;1.75;;;1.55;;
16543;SDS011;8384;47.996;7.786;2023-03-23T05:12:37;1.98;;;1.48;;
16543;SDS011;8384;47.996;7.786;2023-03-23T05:15:03;2.03;;;1.83;;
16543;SDS011;8384;47.996;7.786;2023-03-23T05:17:29;2.58;;;1.83;;
16543;SDS011;8384;47.996;7.786;2023-03-23T05:19:55;2.30;;;1.70;;
16543;SDS011;8384;47.996;7.786;2023-03-23T05:22:21;2.58;;;1.90;;
16543;SDS011;8384;47.996;7.786;2023-03-23T05:24:47;2.00;;;1.80;;
16543;SDS011;8384;47.996;7.786;2023-03-23T05:27:13;1.77;;;1.67;;
16543;SDS011;8384;47.996;7.786;2023-03-23T05:29:39;1.77;;;1.67;;
16543;SDS011;8384;47.996;7.786;2023-03-23T05:32:06;4.15;;;1.88;;
16543;SDS011;8384;47.996;7.786;2023-03-23T05:34:32;2.58;;;1.90;;
16543;SDS011;8384;47.996;7.786;2023-03-23T05:37:02;2.08;;;1.80;;
16543;SDS011;8384;47.996;7.786;2023-03-23T05:39:28;2.92;;;1.80;;
16543;SDS011;8384;47.996;7.786;2023-03-23T05:41:56;2.20;;;1.85;;
16543;SDS011;8384;47.996;7.786;2023-03-23T05:44:21;2.30;;;1.80;;
16543;SDS011;8384;47.996;7.786;2023-03-23T05:46:46;2.05;;;1.90;;
16543;SDS011;8384;47.996;7.786;2023-03-23T05:49:13;2.42;;;1.90;;
16543;SDS011;8384;47.996;7.786;2023-03-23T05:51:40;1.83;;;1.73;;
16543;SDS011;8384;47.996;7.786;2023-03-23T05:54:06;1.77;;;1.60;;
16543;SDS011;8384;47.996;7.786;2023-03-23T05:56:31;1.85;;;1.73;;
16543;SDS011;8384;47.996;7.786;2023-03-23T05:58:57;2.67;;;1.90;;
16543;SDS011;8384;47.996;7.786;2023-03-23T06:01:23;1.90;;;1.80;;
16543;SDS011;8384;47.996;7.786;2023-03-23T06:03:49;2.25;;;1.88;;
16543;SDS011;8384;47.996;7.786;2023-03-23T06:06:18;2.42;;;1.80;;
16543;SDS011;8384;47.996;7.786;2023-03-23T06:08:44;2.10;;;1.90;;
16543;SDS011;8384;47.996;7.786;2023-03-23T06:11:10;2.50;;;2.10;;
16543;SDS011;8384;47.996;7.786;2023-03-23T06:13:35;2.03;;;1.83;;
16543;SDS011;8384;47.996;7.786;2023-03-23T06:16:00;2.57;;;2.00;;
16543;SDS011;8384;47.996;7.786;2023-03-23T06:18:25;2.17;;;1.97;;
16543;SDS011;8384;47.996;7.786;2023-03-23T06:20:51;1.92;;;1.80;;
16543;SDS011;8384;47.996;7.786;2023-03-23T06:23:17;2.55;;;1.95;;
16543;SDS011;8384;47.996;7.786;2023-03-23T06:25:43;2.00;;;1.80;;
16543;SDS011;8384;47.996;7.786;2023-03-23T06:28:09;2.80;;;2.30;;
16543;SDS011;8384;47.996;7.786;2023-03-23T06:30:35;2.57;;;2.10;;
16543;SDS011;8384;47.996;7.786;2023-03-23T06:33:01;2.20;;;2.00;;
16543;SDS011;8384;47.996;7.786;2023-03-23T06:35:30;2.30;;;2.10;;
16543;SDS011;8384;47.996;7.786;2023-03-23T06:37:55;2.50;;;1.80;;
16543;SDS011;8384;47.996;7.786;2023-03-23T06:40:23;2.30;;;2.10;;
16543;SDS011;8384;47.996;7.786;2023-03-23T06:42:48;2.20;;;2.00;;
16543;SDS011;8384;47.996;7.786;2023-03-23T06:45:13;3.60;;;2.30;;
16543;SDS011;8384;47.996;7.786;2023-03-23T06:47:39;2.40;;;2.20;;
16543;SDS011;8384;47.996;7.786;2023-03-23T06:50:04;2.37;;;2.03;;
16543;SDS011;8384;47.996;7.786;2023-03-23T06:52:30;2.25;;;2.00;;
16543;SDS011;8384;47.996;7.786;2023-03-23T06:54:56;2.43;;;2.17;;
16543;SDS011;8384;47.996;7.786;2023-03-23T06:57:21;2.77;;;2.20;;
16543;SDS011;8384;47.996;7.786;2023-03-23T06:59:47;2.57;;;2.20;;
16543;SDS011;8384;47.996;7.786;2023-03-23T07:02:12;2.33;;;2.10;;
16543;SDS011;8384;47.996;7.786;2023-03-23T07:04:39;2.78;;;2.20;;
16543;SDS011;8384;47.996;7.786;2023-03-23T07:07:05;2.78;;;1.98;;
16543;SDS011;8384;47.996;7.786;2023-03-23T07:09:32;2.22;;;1.90;;
16543;SDS011;8384;47.996;7.786;2023-03-23T07:11:58;2.43;;;2.10;;
16543;SDS011;8384;47.996;7.786;2023-03-23T07:14:24;2.20;;;1.90;;
16543;SDS011;8384;47.996;7.786;2023-03-23T07:16:49;2.97;;;2.20;;
16543;SDS011;8384;47.996;7.786;2023-03-23T07:19:15;2.40;;;2.17;;
16543;SDS011;8384;47.996;7.786;2023-03-23T07:21:40;2.83;;;2.03;;
16543;SDS011;8384;47.996;7.786;2023-03-23T07:24:06;2.13;;;1.93;;
16543;SDS011;8384;47.996;7.786;2023-03-23T07:26:35;4.82;;;2.40;;
16543;SDS011;8384;47.996;7.786;2023-03-23T07:29:01;3.33;;;2.10;;
16543;SDS011;8384;47.996;7.786;2023-03-23T07:31:26;2.40;;;2.03;;
16543;SDS011;8384;47.996;7.786;2023-03-23T07:33:52;2.47;;;2.20;;
16543;SDS011;8384;47.996;7.786;2023-03-23T07:36:17;2.42;;;2.13;;
16543;SDS011;8384;47.996;7.786;2023-03-23T07:38:42;3.05;;;2.15;;
16543;SDS011;8384;47.996;7.786;2023-03-23T07:41:08;2.42;;;2.00;;
16543;SDS011;8384;47.996;7.786;2023-03-23T07:43:34;2.60;;;2.17;;
16543;SDS011;8384;47.996;7.786;2023-03-23T07:45:59;2.43;;;2.20;;
16543;SDS011;8384;47.996;7.786;2023-03-23T07:48:24;2.75;;;2.40;;
16543;SDS011;8384;47.996;7.786;2023-03-23T07:50:50;3.10;;;2.17;;
16543;SDS011;8384;47.996;7.786;2023-03-23T07:53:15;2.80;;;2.07;;
16543;SDS011;8384;47.996;7.786;2023-03-23T07:55:41;2.95;;;2.60;;
16543;SDS011;8384;47.996;7.786;2023-03-23T07:58:06;3.50;;;2.60;;
16543;SDS011;8384;47.996;7.786;2023-03-23T08:00:32;3.25;;;2.20;;
16543;SDS011;8384;47.996;7.786;2023-03-23T08:02:58;2.73;;;2.53;;
16543;SDS011;8384;47.996;7.786;2023-03-23T08:05:24;2.50;;;2.30;;
16543;SDS011;8384;47.996;7.786;2023-03-23T08:07:51;3.63;;;2.50;;
16543;SDS011;8384;47.996;7.786;2023-03-23T08:10:18;2.50;;;2.30;;
16543;SDS011;8384;47.996;7.786;2023-03-23T08:12:44;3.20;;;2.40;;
16543;SDS011;8384;47.996;7.786;2023-03-23T08:15:11;3.97;;;2.63;;
16543;SDS011;8384;47.996;7.786;2023-03-23T08:17:39;3.03;;;2.20;;
16543;SDS011;8384;47.996;7.786;2023-03-23T08:20:05;3.70;;;2.53;;
16543;SDS011;8384;47.996;7.786;2023-03-23T08:22:37;2.90;;;2.40;;
16543;SDS011;8384;47.996;7.786;2023-03-23T08:25:05;2.80;;;2.60;;
16543;SDS011;8384;47.996;7.786;2023-03-23T08:27:32;4.30;;;2.72;;
16543;SDS011;8384;47.996;7.786;2023-03-23T08:29:58;3.25;;;2.58;;
16543;SDS011;8384;47.996;7.786;2023-03-23T08:32:24;4.50;;;2.67;;
16543;SDS011;8384;47.996;7.786;2023-03-23T08:34:49;3.33;;;2.43;;
16543;SDS011;8384;47.996;7.786;2023-03-23T08:37:15;3.57;;;2.40;;
16543;SDS011;8384;47.996;7.786;2023-03-23T08:39:40;3.40;;;2.70;;
16543;SDS011;8384;47.996;7.786;2023-03-23T08:42:05;3.37;;;2.57;;
16543;SDS011;8384;47.996;7.786;2023-03-23T08:44:31;3.73;;;2.67;;
16543;SDS011;8384;47.996;7.786;2023-03-23T08:46:56;3.77;;;2.93;;
16543;SDS011;8384;47.996;7.786;2023-03-23T08:49:22;3.50;;;2.53;;
16543;SDS011;8384;47.996;7.786;2023-03-23T08:51:48;3.50;;;2.60;;
16543;SDS011;8384;47.996;7.786;2023-03-23T08:54:13;3.43;;;2.33;;
16543;SDS011;8384;47.996;7.786;2023-03-23T08:56:38;4.77;;;2.53;;
16543;SDS011;8384;47.996;7.786;2023-03-23T08:59:04;3.77;;;2.47;;
16543;SDS011;8384;47.996;7.786;2023-03-23T09:01:29;2.65;;;2.33;;
16543;SDS011;8384;47.996;7.786;2023-03-23T09:03:55;3.45;;;2.40;;
16543;SDS011;8384;47.996;7.786;2023-03-23T09:06:20;2.43;;;2.13;;
16543;SDS011;8384;47.996;7.786;2023-03-23T09:08:46;2.87;;;2.47;;
16543;SDS011;8384;47.996;7.786;2023-03-23T09:11:11;2.27;;;2.00;;
16543;SDS011;8384;47.996;7.786;2023-03-23T09:13:37;2.58;;;2.15;;
16543;SDS011;8384;47.996;7.786;2023-03-23T09:16:04;2.75;;;2.20;;
16543;SDS011;8384;47.996;7.786;2023-03-23T09:18:31;2.75;;;2.10;;
16543;SDS011;8384;47.996;7.786;2023-03-23T09:20:57;2.20;;;2.00;;
16543;SDS011;8384;47.996;7.786;2023-03-23T09:23:24;2.30;;;1.88;;
16543;SDS011;8384;47.996;7.786;2023-03-23T09:25:50;2.60;;;1.80;;
16543;SDS011;8384;47.996;7.786;2023-03-23T09:28:16;2.00;;;1.80;;
16543;SDS011;8384;47.996;7.786;2023-03-23T09:30:42;2.20;;;1.90;;
16543;SDS011;8384;47.996;7.786;2023-03-23T09:33:09;2.00;;;1.80;;
16543;SDS011;8384;47.996;7.786;2023-03-23T09:35:35;2.13;;;1.80;;
16543;SDS011;8384;47.996;7.786;2023-03-23T09:38:03;2.40;;;1.92;;
16543;SDS011;8384;47.996;7.786;2023-03-23T09:40:35;2.40;;;1.80;;
16543;SDS011;8384;47.996;7.786;2023-03-23T09:51:19;2.57;;;1.70;;
16543;SDS011;8384;47.996;7.786;2023-03-23T09:56:45;2.00;;;1.60;;
16543;SDS011;8384;47.996;7.786;2023-03-23T09:59:31;2.95;;;1.58;;
16543;SDS011;8384;47.996;7.786;2023-03-23T10:02:17;1.60;;;1.50;;
16543;SDS011;8384;47.996;7.786;2023-03-23T10:04:47;1.90;;;1.60;;
16543;SDS011;8384;47.996;7.786;2023-03-23T10:07:16;2.20;;;1.70;;
16543;SDS011;8384;47.996;7.786;2023-03-23T10:09:44;1.83;;;1.70;;
16543;SDS011;8384;47.996;7.786;2023-03-23T10:12:19;1.90;;;1.70;;
16543;SDS011;8384;47.996;7.786;2023-03-23T10:17:43;1.88;;;1.63;;
16543;SDS011;8384;47.996;7.786;2023-03-23T10:20:32;1.70;;;1.60;;
16543;SDS011;8384;47.996;7.786;2023-03-23T10:23:24;2.40;;;1.50;;
16543;SDS011;8384;47.996;7.786;2023-03-23T10:28:51;1.70;;;1.60;;
16543;SDS011;8384;47.996;7.786;2023-03-23T10:31:24;1.90;;;1.60;;
16543;SDS011;8384;47.996;7.786;2023-03-23T10:34:11;2.00;;;1.67;;
16543;SDS011;8384;47.996;7.786;2023-03-23T10:42:34;2.65;;;1.52;;
16543;SDS011;8384;47.996;7.786;2023-03-23T10:45:11;1.95;;;1.75;;
16543;SDS011;8384;47.996;7.786;2023-03-23T10:47:38;2.30;;;1.70;;
16543;SDS011;8384;47.996;7.786;2023-03-23T10:50:10;2.00;;;1.73;;
16543;SDS011;8384;47.996;7.786;2023-03-23T10:52:42;1.67;;;1.55;;
16543;SDS011;8384;47.996;7.786;2023-03-23T10:55:11;2.30;;;1.50;;
16543;SDS011;8384;47.996;7.786;2023-03-23T10:57:41;2.10;;;1.67;;
16543;SDS011;8384;47.996;7.786;2023-03-23T11:02:42;1.80;;;1.60;;
16543;SDS011;8384;47.996;7.786;2023-03-23T11:05:23;2.30;;;1.70;;
16543;SDS011;8384;47.996;7.786;2023-03-23T11:07:54;1.63;;;1.53;;
16543;SDS011;8384;47.996;7.786;2023-03-23T11:10:25;2.10;;;1.80;;
16543;SDS011;8384;47.996;7.786;2023-03-23T11:12:53;2.33;;;1.60;;
16543;SDS011;8384;47.996;7.786;2023-03-23T11:15:27;2.45;;;1.52;;
16543;SDS011;8384;47.996;7.786;2023-03-23T11:17:57;1.60;;;1.50;;
16543;SDS011;8384;47.996;7.786;2023-03-23T11:20:25;2.60;;;1.70;;
16543;SDS011;8384;47.996;7.786;2023-03-23T11:22:53;2.22;;;1.50;;
16543;SDS011;8384;47.996;7.786;2023-03-23T11:25:19;2.05;;;1.67;;
16543;SDS011;8384;47.996;7.786;2023-03-23T11:27:44;3.43;;;1.80;;
16543;SDS011;8384;47.996;7.786;2023-03-23T11:32:43;1.75;;;1.55;;
16543;SDS011;8384;47.996;7.786;2023-03-23T11:35:17;1.90;;;1.70;;
16543;SDS011;8384;47.996;7.786;2023-03-23T11:37:50;3.13;;;1.60;;
16543;SDS011;8384;47.996;7.786;2023-03-23T11:40:19;1.83;;;1.60;;
16543;SDS011;8384;47.996;7.786;2023-03-23T11:42:48;2.15;;;1.85;;
16543;SDS011;8384;47.996;7.786;2023-03-23T11:45:24;1.98;;;1.80;;
16543;SDS011;8384;47.996;7.786;2023-03-23T11:48:06;1.60;;;1.50;;
16543;SDS011;8384;47.996;7.786;2023-03-23T11:50:55;1.95;;;1.67;;
16543;SDS011;8384;47.996;7.786;2023-03-23T11:56:29;2.23;;;2.00;;
16543;SDS011;8384;47.996;7.786;2023-03-23T11:58:58;2.75;;;1.85;;
16543;SDS011;8384;47.996;7.786;2023-03-23T12:07:21;2.37;;;1.50;;
16543;SDS011;8384;47.996;7.786;2023-03-23T12:15:49;1.73;;;1.63;;
16543;SDS011;8384;47.996;7.786;2023-03-23T12:21:11;1.93;;;1.63;;
16543;SDS011;8384;47.996;7.786;2023-03-23T12:24:08;2.83;;;1.88;;
16543;SDS011;8384;47.996;7.786;2023-03-23T12:26:39;1.90;;;1.70;;
16543;SDS011;8384;47.996;7.786;2023-03-23T12:40:50;2.00;;;1.60;;
16543;SDS011;8384;47.996;7.786;2023-03-23T12:43:29;2.63;;;1.63;;
16543;SDS011;8384;47.996;7.786;2023-03-23T12:49:13;1.88;;;1.60;;
16543;SDS011;8384;47.996;7.786;2023-03-23T12:57:20;2.45;;;1.83;;
16543;SDS011;8384;47.996;7.786;2023-03-23T13:00:02;1.73;;;1.52;;
16543;SDS011;8384;47.996;7.786;2023-03-23T13:05:09;2.03;;;1.70;;
16543;SDS011;8384;47.996;7.786;2023-03-23T13:08:05;2.40;;;1.70;;
16543;SDS011;8384;47.996;7.786;2023-03-23T13:10:39;2.08;;;1.80;;
16543;SDS011;8384;47.996;7.786;2023-03-23T13:13:17;2.55;;;1.70;;
16543;SDS011;8384;47.996;7.786;2023-03-23T13:15:56;1.80;;;1.50;;
16543;SDS011;8384;47.996;7.786;2023-03-23T13:18:41;3.20;;;1.70;;
16543;SDS011;8384;47.996;7.786;2023-03-23T13:21:29;1.67;;;1.58;;
16543;SDS011;8384;47.996;7.786;2023-03-23T13:24:04;2.25;;;1.77;;
16543;SDS011;8384;47.996;7.786;2023-03-23T13:26:36;1.70;;;1.60;;
16543;SDS011;8384;47.996;7.786;2023-03-23T13:29:12;1.83;;;1.60;;
16543;SDS011;8384;47.996;7.786;2023-03-23T13:31:43;2.03;;;1.60;;
16543;SDS011;8384;47.996;7.786;2023-03-23T13:34:15;1.83;;;1.50;;
16543;SDS011;8384;47.996;7.786;2023-03-23T13:36:58;1.60;;;1.50;;
16543;SDS011;8384;47.996;7.786;2023-03-23T13:39:38;1.90;;;1.52;;
16543;SDS011;8384;47.996;7.786;2023-03-23T13:44:41;2.40;;;1.50;;
16543;SDS011;8384;47.996;7.786;2023-03-23T13:49:52;2.30;;;1.48;;
16543;SDS011;8384;47.996;7.786;2023-03-23T13:54:50;2.03;;;1.42;;
16543;SDS011;8384;47.996;7.786;2023-03-23T13:57:36;1.73;;;1.50;;
16543;SDS011;8384;47.996;7.786;2023-03-23T14:05:38;3.45;;;1.50;;
16543;SDS011;8384;47.996;7.786;2023-03-23T14:10:35;1.70;;;1.43;;
16543;SDS011;8384;47.996;7.786;2023-03-23T14:13:14;2.80;;;1.73;;
16543;SDS011;8384;47.996;7.786;2023-03-23T14:15:58;1.70;;;1.60;;
16543;SDS011;8384;47.996;7.786;2023-03-23T14:18:27;2.50;;;1.75;;
16543;SDS011;8384;47.996;7.786;2023-03-23T14:20:57;3.00;;;1.80;;
16543;SDS011;8384;47.996;7.786;2023-03-23T14:23:23;1.85;;;1.45;;
16543;SDS011;8384;47.996;7.786;2023-03-23T14:26:00;3.00;;;1.70;;
16543;SDS011;8384;47.996;7.786;2023-03-23T14:28:32;2.10;;;1.67;;
16543;SDS011;8384;47.996;7.786;2023-03-23T14:31:01;1.93;;;1.67;;
16543;SDS011;8384;47.996;7.786;2023-03-23T14:33:27;1.57;;;1.47;;
16543;SDS011;8384;47.996;7.786;2023-03-23T14:35:53;2.13;;;1.53;;
16543;SDS011;8384;47.996;7.786;2023-03-23T14:38:20;3.38;;;1.98;;
16543;SDS011;8384;47.996;7.786;2023-03-23T14:40:58;1.77;;;1.52;;
16543;SDS011;8384;47.996;7.786;2023-03-23T14:43:25;2.00;;;1.60;;
16543;SDS011;8384;47.996;7.786;2023-03-23T14:45:52;1.60;;;1.50;;
16543;SDS011;8384;47.996;7.786;2023-03-23T14:48:19;1.65;;;1.50;;
16543;SDS011;8384;47.996;7.786;2023-03-23T14:50:59;1.90;;;1.63;;
16543;SDS011;8384;47.996;7.786;2023-03-23T14:53:36;1.95;;;1.50;;
16543;SDS011;8384;47.996;7.786;2023-03-23T14:56:09;1.50;;;1.40;;
16543;SDS011;8384;47.996;7.786;2023-03-23T14:58:37;1.73;;;1.50;;
16543;SDS011;8384;47.996;7.786;2023-03-23T15:03:35;1.65;;;1.52;;
16543;SDS011;8384;47.996;7.786;2023-03-23T15:06:05;1.55;;;1.38;;
16543;SDS011;8384;47.996;7.786;2023-03-23T15:08:35;1.70;;;1.40;;
16543;SDS011;8384;47.996;7.786;2023-03-23T15:11:03;1.90;;;1.47;;
16543;SDS011;8384;47.996;7.786;2023-03-23T15:13:36;1.60;;;1.50;;
16543;SDS011;8384;47.996;7.786;2023-03-23T15:16:11;1.75;;;1.40;;
16543;SDS011;8384;47.996;7.786;2023-03-23T15:18:40;1.60;;;1.50;;
16543;SDS011;8384;47.996;7.786;2023-03-23T15:21:19;2.20;;;1.50;;
16543;SDS011;8384;47.996;7.786;2023-03-23T15:23:48;1.90;;;1.57;;
16543;SDS011;8384;47.996;7.786;2023-03-23T15:26:24;2.10;;;1.50;;
16543;SDS011;8384;47.996;7.786;2023-03-23T15:28:50;2.28;;;1.60;;
16543;SDS011;8384;47.996;7.786;2023-03-23T15:31:26;1.63;;;1.52;;
16543;SDS011;8384;47.996;7.786;2023-03-23T15:33:54;1.67;;;1.58;;
16543;SDS011;8384;47.996;7.786;2023-03-23T15:36:24;2.08;;;1.60;;
16543;SDS011;8384;47.996;7.786;2023-03-23T15:38:49;2.43;;;1.60;;
16543;SDS011;8384;47.996;7.786;2023-03-23T15:41:25;2.10;;;1.60;;
16543;SDS011;8384;47.996;7.786;2023-03-23T15:43:56;1.80;;;1.50;;
16543;SDS011;8384;47.996;7.786;2023-03-23T15:46:24;2.05;;;1.50;;
16543;SDS011;8384;47.996;7.786;2023-03-23T15:48:52;1.90;;;1.70;;
16543;SDS011;8384;47.996;7.786;2023-03-23T15:51:21;1.75;;;1.65;;
16543;SDS011;8384;47.996;7.786;2023-03-23T15:53:49;1.85;;;1.67;;
16543;SDS011;8384;47.996;7.786;2023-03-23T15:56:16;2.05;;;1.58;;
16543;SDS011;8384;47.996;7.786;2023-03-23T15:58:42;2.22;;;1.67;;
16543;SDS011;8384;47.996;7.786;2023-03-23T16:01:11;2.58;;;1.50;;
16543;SDS011;8384;47.996;7.786;2023-03-23T16:03:41;1.73;;;1.60;;
16543;SDS011;8384;47.996;7.786;2023-03-23T16:06:11;1.70;;;1.60;;
16543;SDS011;8384;47.996;7.786;2023-03-23T16:08:37;2.33;;;1.70;;
16543;SDS011;8384;47.996;7.786;2023-03-23T16:11:05;2.17;;;1.73;;
16543;SDS011;8384;47.996;7.786;2023-03-23T16:13:32;2.13;;;1.60;;
16543;SDS011;8384;47.996;7.786;2023-03-23T16:15:57;1.80;;;1.70;;
16543;SDS011;8384;47.996;7.786;2023-03-23T16:18:23;2.00;;;1.70;;
16543;SDS011;8384;47.996;7.786;2023-03-23T16:20:48;2.37;;;1.70;;
16543;SDS011;8384;47.996;7.786;2023-03-23T16:23:14;1.80;;;1.70;;
16543;SDS011;8384;47.996;7.786;2023-03-23T16:25:40;2.03;;;1.70;;
16543;SDS011;8384;47.996;7.786;2023-03-23T16:28:07;2.50;;;1.83;;
16543;SDS011;8384;47.996;7.786;2023-03-23T16:30:35;3.05;;;1.80;;
16543;SDS011;8384;47.996;7.786;2023-03-23T16:33:00;2.50;;;1.70;;
16543;SDS011;8384;47.996;7.786;2023-03-23T16:35:26;2.47;;;1.80;;
16543;SDS011;8384;47.996;7.786;2023-03-23T16:37:53;2.10;;;1.90;;
16543;SDS011;8384;47.996;7.786;2023-03-23T16:40:20;2.08;;;1.85;;
16543;SDS011;8384;47.996;7.786;2023-03-23T16:42:46;2.42;;;2.08;;
16543;SDS011;8384;47.996;7.786;2023-03-23T16:45:13;2.40;;;1.67;;
16543;SDS011;8384;47.996;7.786;2023-03-23T16:47:39;2.70;;;1.80;;
16543;SDS011;8384;47.996;7.786;2023-03-23T16:50:06;2.70;;;1.83;;
16543;SDS011;8384;47.996;7.786;2023-03-23T16:52:35;2.53;;;1.90;;
16543;SDS011;8384;47.996;7.786;2023-03-23T16:55:01;2.03;;;1.83;;
16543;SDS011;8384;47.996;7.786;2023-03-23T16:57:27;2.00;;;1.80;;
16543;SDS011;8384;47.996;7.786;2023-03-23T16:59:54;3.05;;;2.10;;